Wotan — V2CA5 — position and weather

sailwx.info

Track history (hours):
 
Tides and Currents Weather Stations Pressure Air Temp Water Temp Dewpoint Dewpoint Depression Visibility Wind Speed Wind Dir Waves Ship Positions

Wotan

Last reported at 2014-Jul-25 10:32 UTC. Time now 2014-Jul-25 11:27 UTC.
Position N 51°52' W 008°20'.

Length 100 m; draft 4 m.

Type: Cargo ship. MMSI: 304195000.

Date/timePositionNaut miles runAvg speedWind from/ knotsBaromVisibWave heightAir tempDewpointWater temp
2014-Jul-25 10:32N 51°52' W 008°20'0 0.0
2014-Jul-25 09:32N 51°52' W 008°20'0 0.0
2014-Jul-25 08:32N 51°52' W 008°20'0 0.0
2014-Jul-25 07:32N 51°52' W 008°20'0 0.0
2014-Jul-25 06:26N 51°52' W 008°20'0 0.0
2014-Jul-25 05:32N 51°52' W 008°20'0 0.0
2014-Jul-25 04:32N 51°52' W 008°20'0 0.0
2014-Jul-25 03:32N 51°52' W 008°20'0 0.0
2014-Jul-25 02:32N 51°52' W 008°20'0 0.0
2014-Jul-25 01:32N 51°52' W 008°20'0 0.0
2014-Jul-25 00:32N 51°52' W 008°20'0 0.0
2014-Jul-24 23:32N 51°52' W 008°20'0 0.0
2014-Jul-24 22:32N 51°52' W 008°20'0 0.0
2014-Jul-24 21:32N 51°52' W 008°20'0 0.0
2014-Jul-24 20:32N 51°52' W 008°20'0 0.0
2014-Jul-24 19:32N 51°52' W 008°20'0 0.0
2014-Jul-24 18:32N 51°52' W 008°20'0 0.0
2014-Jul-24 17:32N 51°52' W 008°20'0 0.0
2014-Jul-24 16:32N 51°52' W 008°20'0 0.0
2014-Jul-24 15:32N 51°52' W 008°20'0 0.0
2014-Jul-24 14:32N 51°52' W 008°20'0 0.0
2014-Jul-24 13:32N 51°52' W 008°20'0 0.0
2014-Jul-24 12:32N 51°52' W 008°20'0 0.0
2014-Jul-24 11:32N 51°52' W 008°20'0 0.0
2014-Jul-24 10:32N 51°52' W 008°20'0 0.0
2014-Jul-24 09:32N 51°52' W 008°20'0 0.0
2014-Jul-24 08:32N 51°52' W 008°20'0 0.0
2014-Jul-24 07:32N 51°52' W 008°20'0 0.0
2014-Jul-24 06:32N 51°52' W 008°20'0 0.0
2014-Jul-24 05:32N 51°52' W 008°20'0 0.0
2014-Jul-24 04:32N 51°52' W 008°20'0 0.0
2014-Jul-24 03:32N 51°52' W 008°20'0 0.0
2014-Jul-24 02:32N 51°52' W 008°20'0 0.0
2014-Jul-24 01:32N 51°52' W 008°20'0 0.0
2014-Jul-24 00:32N 51°52' W 008°20'0 0.0
2014-Jul-23 23:32N 51°52' W 008°20'0 0.0
2014-Jul-23 22:32N 51°52' W 008°20'0 0.0
2014-Jul-23 21:32N 51°52' W 008°20'0 0.0
2014-Jul-23 20:32N 51°52' W 008°20'0 0.0
2014-Jul-23 19:32N 51°52' W 008°20'0 0.0
2014-Jul-23 18:32N 51°52' W 008°20'0 0.0
2014-Jul-23 16:29N 51°52' W 008°20'0 0.2
2014-Jul-23 15:33N 51°52' W 008°20'5 4.9
2014-Jul-23 14:32N 51°54' W 008°27'0 0.0
2014-Jul-23 13:32N 51°54' W 008°27'0 0.0
2014-Jul-23 12:29N 51°54' W 008°27'0 0.0
2014-Jul-23 11:32N 51°54' W 008°27'0 0.0
2014-Jul-23 10:32N 51°54' W 008°27'0 0.0
2014-Jul-23 09:32N 51°54' W 008°28'0 0.0
2014-Jul-23 08:32N 51°54' W 008°28'0 0.0
2014-Jul-23 07:29N 51°54' W 008°28'0 0.0
2014-Jul-23 06:32N 51°54' W 008°28'0 0.0
2014-Jul-23 05:32N 51°54' W 008°28'0 0.0
2014-Jul-23 04:32N 51°54' W 008°28'0 0.0
2014-Jul-23 03:32N 51°54' W 008°28'0 0.0
2014-Jul-23 02:32N 51°54' W 008°28'0 0.0
2014-Jul-23 01:29N 51°54' W 008°28'0 0.0
2014-Jul-23 00:32N 51°54' W 008°28'0 0.0
2014-Jul-22 23:29N 51°54' W 008°28'0 0.0
2014-Jul-22 22:32N 51°54' W 008°28'0 0.0
2014-Jul-22 21:32N 51°54' W 008°28'0 0.0
2014-Jul-22 20:32N 51°54' W 008°28'0 0.0
2014-Jul-22 19:32N 51°54' W 008°28'0 0.0
2014-Jul-22 18:32N 51°54' W 008°28'0 0.0
2014-Jul-22 17:32N 51°54' W 008°28'0 0.0
2014-Jul-22 16:32N 51°54' W 008°28'0 0.0
2014-Jul-22 15:32N 51°54' W 008°28'0 0.0
2014-Jul-22 14:32N 51°54' W 008°28'0 0.0
2014-Jul-22 13:32N 51°54' W 008°28'0 0.0
2014-Jul-22 12:32N 51°54' W 008°28'0 0.0
2014-Jul-22 11:32N 51°54' W 008°28'1 0.5
2014-Jul-22 10:33N 51°54' W 008°27'6 6.5
2014-Jul-22 09:33N 51°51' W 008°18'7 7.1
2014-Jul-22 08:33N 51°44' W 008°14'9 9.4
2014-Jul-22 07:33N 51°38' W 008°03'10 9.5
2014-Jul-22 06:33N 51°31' W 007°51'259 7.6
2014-Jul-20 20:18N 50°23' W 001°15'911.0
2014-Jul-20 19:31N 50°24' W 001°02'1110.9
2014-Jul-20 18:33N 50°26' W 000°45'8 8.1
2014-Jul-20 17:33N 50°28' W 000°33'8 8.2
2014-Jul-20 16:33N 50°30' W 000°20'11 7.7
2014-Jul-20 15:10N 50°32' W 000°04'5 7.6
2014-Jul-20 14:32N 50°33' E 000°04'8 7.6
2014-Jul-20 13:25N 50°35' E 000°17'7 8.5
2014-Jul-20 12:33N 50°37' E 000°28'10 9.8
2014-Jul-20 11:33N 50°42' E 000°41'1010.2
2014-Jul-20 10:33N 50°48' E 000°55'11 9.8
2014-Jul-20 09:28N 50°54' E 001°08'16 8.5
2014-Jul-20 07:34N 51°05' E 001°28'7 6.8
2014-Jul-20 06:33N 51°09' E 001°36'7 7.0
2014-Jul-20 05:33N 51°13' E 001°44'8 8.1
2014-Jul-20 04:33N 51°20' E 001°52'9 9.4
2014-Jul-20 03:33N 51°28' E 002°00'1110.6
2014-Jul-20 02:34N 51°36' E 002°11'1110.9
2014-Jul-20 01:34N 51°44' E 002°22'1110.6
2014-Jul-20 00:33N 51°53' E 002°33'35 8.5
2014-Jul-19 20:28N 52°21' E 003°08'65 9.3
2014-Jul-19 13:30N 53°08' E 004°21'9 9.2
2014-Jul-19 12:33N 53°16' E 004°27'8 8.3
2014-Jul-19 11:32N 53°23' E 004°33'7 7.3
2014-Jul-19 10:32N 53°29' E 004°41'8 8.0
2014-Jul-19 09:33N 53°32' E 004°53'9 8.6
2014-Jul-19 08:33N 53°34' E 005°07'1010.2
2014-Jul-19 07:33N 53°38' E 005°23'1110.9
2014-Jul-19 06:33N 53°41' E 005°40'1110.7
2014-Jul-19 05:33N 53°45' E 005°57'1110.3
2014-Jul-19 04:32N 53°48' E 006°14'9 9.6
2014-Jul-19 03:33N 53°51' E 006°30'9 9.0
2014-Jul-19 02:33N 53°53' E 006°45'9 8.6
2014-Jul-19 01:33N 53°55' E 006°59'10 8.5
2014-Jul-19 00:22N 53°57' E 007°15'8 8.7
2014-Jul-18 23:26N 53°59' E 007°29'8 9.6
2014-Jul-18 22:33N 54°01' E 007°43'1010.5
2014-Jul-18 21:34N 54°01' E 008°00'1110.8
2014-Jul-18 20:34N 54°00' E 008°19'1313.3
2014-Jul-18 19:33N 53°56' E 008°40'1010.5
2014-Jul-18 18:33N 53°51' E 008°56'8 7.0
2014-Jul-18 17:25N 53°54' E 009°09'1 1.7
2014-Jul-18 16:33N 53°55' E 009°11'8 7.9
2014-Jul-18 15:31N 54°02' E 009°18'8 8.0
2014-Jul-18 14:30N 54°09' E 009°23'40 5.0
2014-Jul-18 06:30N 54°31' E 010°20'10 9.9
2014-Jul-18 05:33N 54°34' E 010°35'9 9.3
2014-Jul-18 04:33N 54°35' E 010°51'9 9.3
2014-Jul-18 03:33N 54°36' E 011°07'9 9.1
2014-Jul-18 02:34N 54°33' E 011°21'9 9.4
2014-Jul-18 01:33N 54°29' E 011°36'8 8.4
2014-Jul-18 00:34N 54°27' E 011°50'9 8.7
2014-Jul-17 23:34N 54°27' E 012°05'8 7.8
2014-Jul-17 22:33N 54°33' E 012°13'7 7.4
2014-Jul-17 21:33N 54°39' E 012°21'9 9.2
2014-Jul-17 20:33N 54°44' E 012°34'9 9.1
2014-Jul-17 19:34N 54°47' E 012°48'10 9.8
2014-Jul-17 18:33N 54°47' E 013°06'9 9.5
2014-Jul-17 17:34N 54°49' E 013°22'9 9.5
2014-Jul-17 16:34N 54°51' E 013°37'10 9.5
2014-Jul-17 15:33N 54°55' E 013°53'9 9.4
2014-Jul-17 14:34N 54°58' E 014°08'10 9.3
2014-Jul-17 13:30N 55°02' E 014°24'9 9.1
2014-Jul-17 12:33N 55°05' E 014°38'2 1.9
2014-Jul-17 11:30N 55°06' E 014°41'0 0.0
2014-Jul-17 10:30N 55°06' E 014°41'0 0.0
2014-Jul-17 09:30N 55°06' E 014°41'0 0.0
2014-Jul-17 08:30N 55°06' E 014°41'0 0.0
2014-Jul-17 07:24N 55°06' E 014°41'0 0.0
2014-Jul-17 06:30N 55°06' E 014°41'0 0.0
2014-Jul-17 05:30N 55°06' E 014°41'0 0.0
2014-Jul-17 04:30N 55°06' E 014°41'0 0.0
2014-Jul-17 03:30N 55°06' E 014°41'0 0.0
2014-Jul-17 02:30N 55°06' E 014°41'0 0.0
2014-Jul-17 01:30N 55°06' E 014°41'0 0.0
2014-Jul-17 00:30N 55°06' E 014°41'0 0.0
2014-Jul-16 23:30N 55°06' E 014°41'0 0.0
2014-Jul-16 22:30N 55°06' E 014°41'0 0.0
2014-Jul-16 21:30N 55°06' E 014°41'0 0.0
2014-Jul-16 20:30N 55°06' E 014°41'0 0.0
2014-Jul-16 19:30N 55°06' E 014°41'0 0.0
2014-Jul-16 18:30N 55°06' E 014°41'0 0.0
2014-Jul-16 17:30N 55°06' E 014°41'0 0.0
2014-Jul-16 16:30N 55°06' E 014°41'0 0.0
2014-Jul-16 15:30N 55°06' E 014°41'0 0.0
2014-Jul-16 14:30N 55°06' E 014°41'0 0.0
2014-Jul-16 13:30N 55°06' E 014°41'0 0.0
2014-Jul-16 12:30N 55°06' E 014°41'0 0.0
2014-Jul-16 11:30N 55°06' E 014°41'0 0.0
2014-Jul-16 10:30N 55°06' E 014°41'0 0.0
2014-Jul-16 09:30N 55°06' E 014°41'0 0.0
2014-Jul-16 08:30N 55°06' E 014°41'0 0.0
2014-Jul-16 07:30N 55°06' E 014°41'0 0.0
2014-Jul-16 06:30N 55°06' E 014°41'0 0.0
2014-Jul-16 05:30N 55°06' E 014°41'0 0.0
2014-Jul-16 04:30N 55°06' E 014°41'0 0.0
2014-Jul-16 03:30N 55°06' E 014°41'0 0.0
2014-Jul-16 02:30N 55°06' E 014°41'0 0.0
2014-Jul-16 01:33N 55°06' E 014°41'0 0.0
2014-Jul-16 00:27N 55°06' E 014°41'0 0.0
2014-Jul-15 23:30N 55°06' E 014°41'0 0.0
2014-Jul-15 22:30N 55°06' E 014°41'0 0.0
2014-Jul-15 21:30N 55°06' E 014°41'0 0.0
2014-Jul-15 20:30N 55°06' E 014°41'0 0.0
2014-Jul-15 19:30N 55°06' E 014°41'0 0.0
2014-Jul-15 18:30N 55°06' E 014°41'0 0.0
2014-Jul-15 17:30N 55°06' E 014°41'0 0.0
2014-Jul-15 16:30N 55°06' E 014°41'0 0.0
2014-Jul-15 15:30N 55°06' E 014°41'0 0.0
2014-Jul-15 14:30N 55°06' E 014°41'0 0.0
2014-Jul-15 13:30N 55°06' E 014°41'0 0.0
2014-Jul-15 12:30N 55°06' E 014°41'0 0.0
2014-Jul-15 11:30N 55°06' E 014°41'  
Track history (hours):
 
Tides and Currents Weather Stations Pressure Air Temp Water Temp Dewpoint Dewpoint Depression Visibility Wind Speed Wind Dir Waves Ship Positions

Wotan

Last reported at 2014-Jul-25 10:32 UTC. Time now 2014-Jul-25 11:27 UTC.
Position N 51°52' W 008°20'.

Length 100 m; draft 4 m.

Type: Cargo ship. MMSI: 304195000.

Date/timePositionNaut miles runAvg speedWind from/ knotsBaromVisibWave heightAir tempDewpointWater temp
2014-Jul-25 10:32N 51°52' W 008°20'0 0.0
2014-Jul-25 09:32N 51°52' W 008°20'0 0.0
2014-Jul-25 08:32N 51°52' W 008°20'0 0.0
2014-Jul-25 07:32N 51°52' W 008°20'0 0.0
2014-Jul-25 06:26N 51°52' W 008°20'0 0.0
2014-Jul-25 05:32N 51°52' W 008°20'0 0.0
2014-Jul-25 04:32N 51°52' W 008°20'0 0.0
2014-Jul-25 03:32N 51°52' W 008°20'0 0.0
2014-Jul-25 02:32N 51°52' W 008°20'0 0.0
2014-Jul-25 01:32N 51°52' W 008°20'0 0.0
2014-Jul-25 00:32N 51°52' W 008°20'0 0.0
2014-Jul-24 23:32N 51°52' W 008°20'0 0.0
2014-Jul-24 22:32N 51°52' W 008°20'0 0.0
2014-Jul-24 21:32N 51°52' W 008°20'0 0.0
2014-Jul-24 20:32N 51°52' W 008°20'0 0.0
2014-Jul-24 19:32N 51°52' W 008°20'0 0.0
2014-Jul-24 18:32N 51°52' W 008°20'0 0.0
2014-Jul-24 17:32N 51°52' W 008°20'0 0.0
2014-Jul-24 16:32N 51°52' W 008°20'0 0.0
2014-Jul-24 15:32N 51°52' W 008°20'0 0.0
2014-Jul-24 14:32N 51°52' W 008°20'0 0.0
2014-Jul-24 13:32N 51°52' W 008°20'0 0.0
2014-Jul-24 12:32N 51°52' W 008°20'0 0.0
2014-Jul-24 11:32N 51°52' W 008°20'0 0.0
2014-Jul-24 10:32N 51°52' W 008°20'0 0.0
2014-Jul-24 09:32N 51°52' W 008°20'0 0.0
2014-Jul-24 08:32N 51°52' W 008°20'0 0.0
2014-Jul-24 07:32N 51°52' W 008°20'0 0.0
2014-Jul-24 06:32N 51°52' W 008°20'0 0.0
2014-Jul-24 05:32N 51°52' W 008°20'0 0.0
2014-Jul-24 04:32N 51°52' W 008°20'0 0.0
2014-Jul-24 03:32N 51°52' W 008°20'0 0.0
2014-Jul-24 02:32N 51°52' W 008°20'0 0.0
2014-Jul-24 01:32N 51°52' W 008°20'0 0.0
2014-Jul-24 00:32N 51°52' W 008°20'0 0.0
2014-Jul-23 23:32N 51°52' W 008°20'0 0.0
2014-Jul-23 22:32N 51°52' W 008°20'0 0.0
2014-Jul-23 21:32N 51°52' W 008°20'0 0.0
2014-Jul-23 20:32N 51°52' W 008°20'0 0.0
2014-Jul-23 19:32N 51°52' W 008°20'0 0.0
2014-Jul-23 18:32N 51°52' W 008°20'0 0.0
2014-Jul-23 16:29N 51°52' W 008°20'0 0.2
2014-Jul-23 15:33N 51°52' W 008°20'5 4.9
2014-Jul-23 14:32N 51°54' W 008°27'0 0.0
2014-Jul-23 13:32N 51°54' W 008°27'0 0.0
2014-Jul-23 12:29N 51°54' W 008°27'0 0.0
2014-Jul-23 11:32N 51°54' W 008°27'0 0.0
2014-Jul-23 10:32N 51°54' W 008°27'0 0.0
2014-Jul-23 09:32N 51°54' W 008°28'0 0.0
2014-Jul-23 08:32N 51°54' W 008°28'0 0.0
2014-Jul-23 07:29N 51°54' W 008°28'0 0.0
2014-Jul-23 06:32N 51°54' W 008°28'0 0.0
2014-Jul-23 05:32N 51°54' W 008°28'0 0.0
2014-Jul-23 04:32N 51°54' W 008°28'0 0.0
2014-Jul-23 03:32N 51°54' W 008°28'0 0.0
2014-Jul-23 02:32N 51°54' W 008°28'0 0.0
2014-Jul-23 01:29N 51°54' W 008°28'0 0.0
2014-Jul-23 00:32N 51°54' W 008°28'0 0.0
2014-Jul-22 23:29N 51°54' W 008°28'0 0.0
2014-Jul-22 22:32N 51°54' W 008°28'0 0.0
2014-Jul-22 21:32N 51°54' W 008°28'0 0.0
2014-Jul-22 20:32N 51°54' W 008°28'0 0.0
2014-Jul-22 19:32N 51°54' W 008°28'0 0.0
2014-Jul-22 18:32N 51°54' W 008°28'0 0.0
2014-Jul-22 17:32N 51°54' W 008°28'0 0.0
2014-Jul-22 16:32N 51°54' W 008°28'0 0.0
2014-Jul-22 15:32N 51°54' W 008°28'0 0.0
2014-Jul-22 14:32N 51°54' W 008°28'0 0.0
2014-Jul-22 13:32N 51°54' W 008°28'0 0.0
2014-Jul-22 12:32N 51°54' W 008°28'0 0.0
2014-Jul-22 11:32N 51°54' W 008°28'1 0.5
2014-Jul-22 10:33N 51°54' W 008°27'6 6.5
2014-Jul-22 09:33N 51°51' W 008°18'7 7.1
2014-Jul-22 08:33N 51°44' W 008°14'9 9.4
2014-Jul-22 07:33N 51°38' W 008°03'10 9.5
2014-Jul-22 06:33N 51°31' W 007°51'259 7.6
2014-Jul-20 20:18N 50°23' W 001°15'911.0
2014-Jul-20 19:31N 50°24' W 001°02'1110.9
2014-Jul-20 18:33N 50°26' W 000°45'8 8.1
2014-Jul-20 17:33N 50°28' W 000°33'8 8.2
2014-Jul-20 16:33N 50°30' W 000°20'11 7.7
2014-Jul-20 15:10N 50°32' W 000°04'5 7.6
2014-Jul-20 14:32N 50°33' E 000°04'8 7.6
2014-Jul-20 13:25N 50°35' E 000°17'7 8.5
2014-Jul-20 12:33N 50°37' E 000°28'10 9.8
2014-Jul-20 11:33N 50°42' E 000°41'1010.2
2014-Jul-20 10:33N 50°48' E 000°55'11 9.8
2014-Jul-20 09:28N 50°54' E 001°08'16 8.5
2014-Jul-20 07:34N 51°05' E 001°28'7 6.8
2014-Jul-20 06:33N 51°09' E 001°36'7 7.0
2014-Jul-20 05:33N 51°13' E 001°44'8 8.1
2014-Jul-20 04:33N 51°20' E 001°52'9 9.4
2014-Jul-20 03:33N 51°28' E 002°00'1110.6
2014-Jul-20 02:34N 51°36' E 002°11'1110.9
2014-Jul-20 01:34N 51°44' E 002°22'1110.6
2014-Jul-20 00:33N 51°53' E 002°33'35 8.5
2014-Jul-19 20:28N 52°21' E 003°08'65 9.3
2014-Jul-19 13:30N 53°08' E 004°21'9 9.2
2014-Jul-19 12:33N 53°16' E 004°27'8 8.3
2014-Jul-19 11:32N 53°23' E 004°33'7 7.3
2014-Jul-19 10:32N 53°29' E 004°41'8 8.0
2014-Jul-19 09:33N 53°32' E 004°53'9 8.6
2014-Jul-19 08:33N 53°34' E 005°07'1010.2
2014-Jul-19 07:33N 53°38' E 005°23'1110.9
2014-Jul-19 06:33N 53°41' E 005°40'1110.7
2014-Jul-19 05:33N 53°45' E 005°57'1110.3
2014-Jul-19 04:32N 53°48' E 006°14'9 9.6
2014-Jul-19 03:33N 53°51' E 006°30'9 9.0
2014-Jul-19 02:33N 53°53' E 006°45'9 8.6
2014-Jul-19 01:33N 53°55' E 006°59'10 8.5
2014-Jul-19 00:22N 53°57' E 007°15'8 8.7
2014-Jul-18 23:26N 53°59' E 007°29'8 9.6
2014-Jul-18 22:33N 54°01' E 007°43'1010.5
2014-Jul-18 21:34N 54°01' E 008°00'1110.8
2014-Jul-18 20:34N 54°00' E 008°19'1313.3
2014-Jul-18 19:33N 53°56' E 008°40'1010.5
2014-Jul-18 18:33N 53°51' E 008°56'8 7.0
2014-Jul-18 17:25N 53°54' E 009°09'1 1.7
2014-Jul-18 16:33N 53°55' E 009°11'8 7.9
2014-Jul-18 15:31N 54°02' E 009°18'8 8.0
2014-Jul-18 14:30N 54°09' E 009°23'40 5.0
2014-Jul-18 06:30N 54°31' E 010°20'10 9.9
2014-Jul-18 05:33N 54°34' E 010°35'9 9.3
2014-Jul-18 04:33N 54°35' E 010°51'9 9.3
2014-Jul-18 03:33N 54°36' E 011°07'9 9.1
2014-Jul-18 02:34N 54°33' E 011°21'9 9.4
2014-Jul-18 01:33N 54°29' E 011°36'8 8.4
2014-Jul-18 00:34N 54°27' E 011°50'9 8.7
2014-Jul-17 23:34N 54°27' E 012°05'8 7.8
2014-Jul-17 22:33N 54°33' E 012°13'7 7.4
2014-Jul-17 21:33N 54°39' E 012°21'9 9.2
2014-Jul-17 20:33N 54°44' E 012°34'9 9.1
2014-Jul-17 19:34N 54°47' E 012°48'10 9.8
2014-Jul-17 18:33N 54°47' E 013°06'9 9.5
2014-Jul-17 17:34N 54°49' E 013°22'9 9.5
2014-Jul-17 16:34N 54°51' E 013°37'10 9.5
2014-Jul-17 15:33N 54°55' E 013°53'9 9.4
2014-Jul-17 14:34N 54°58' E 014°08'10 9.3
2014-Jul-17 13:30N 55°02' E 014°24'9 9.1
2014-Jul-17 12:33N 55°05' E 014°38'2 1.9
2014-Jul-17 11:30N 55°06' E 014°41'0 0.0
2014-Jul-17 10:30N 55°06' E 014°41'0 0.0
2014-Jul-17 09:30N 55°06' E 014°41'0 0.0
2014-Jul-17 08:30N 55°06' E 014°41'0 0.0
2014-Jul-17 07:24N 55°06' E 014°41'0 0.0
2014-Jul-17 06:30N 55°06' E 014°41'0 0.0
2014-Jul-17 05:30N 55°06' E 014°41'0 0.0
2014-Jul-17 04:30N 55°06' E 014°41'0 0.0
2014-Jul-17 03:30N 55°06' E 014°41'0 0.0
2014-Jul-17 02:30N 55°06' E 014°41'0 0.0
2014-Jul-17 01:30N 55°06' E 014°41'0 0.0
2014-Jul-17 00:30N 55°06' E 014°41'0 0.0
2014-Jul-16 23:30N 55°06' E 014°41'0 0.0
2014-Jul-16 22:30N 55°06' E 014°41'0 0.0
2014-Jul-16 21:30N 55°06' E 014°41'0 0.0
2014-Jul-16 20:30N 55°06' E 014°41'0 0.0
2014-Jul-16 19:30N 55°06' E 014°41'0 0.0
2014-Jul-16 18:30N 55°06' E 014°41'0 0.0
2014-Jul-16 17:30N 55°06' E 014°41'0 0.0
2014-Jul-16 16:30N 55°06' E 014°41'0 0.0
2014-Jul-16 15:30N 55°06' E 014°41'0 0.0
2014-Jul-16 14:30N 55°06' E 014°41'0 0.0
2014-Jul-16 13:30N 55°06' E 014°41'0 0.0
2014-Jul-16 12:30N 55°06' E 014°41'0 0.0
2014-Jul-16 11:30N 55°06' E 014°41'0 0.0
2014-Jul-16 10:30N 55°06' E 014°41'0 0.0
2014-Jul-16 09:30N 55°06' E 014°41'0 0.0
2014-Jul-16 08:30N 55°06' E 014°41'0 0.0
2014-Jul-16 07:30N 55°06' E 014°41'0 0.0
2014-Jul-16 06:30N 55°06' E 014°41'0 0.0
2014-Jul-16 05:30N 55°06' E 014°41'0 0.0
2014-Jul-16 04:30N 55°06' E 014°41'0 0.0
2014-Jul-16 03:30N 55°06' E 014°41'0 0.0
2014-Jul-16 02:30N 55°06' E 014°41'0 0.0
2014-Jul-16 01:33N 55°06' E 014°41'0 0.0
2014-Jul-16 00:27N 55°06' E 014°41'0 0.0
2014-Jul-15 23:30N 55°06' E 014°41'0 0.0
2014-Jul-15 22:30N 55°06' E 014°41'0 0.0
2014-Jul-15 21:30N 55°06' E 014°41'0 0.0
2014-Jul-15 20:30N 55°06' E 014°41'0 0.0
2014-Jul-15 19:30N 55°06' E 014°41'0 0.0
2014-Jul-15 18:30N 55°06' E 014°41'0 0.0
2014-Jul-15 17:30N 55°06' E 014°41'0 0.0
2014-Jul-15 16:30N 55°06' E 014°41'0 0.0
2014-Jul-15 15:30N 55°06' E 014°41'0 0.0
2014-Jul-15 14:30N 55°06' E 014°41'0 0.0
2014-Jul-15 13:30N 55°06' E 014°41'0 0.0
2014-Jul-15 12:30N 55°06' E 014°41'0 0.0
2014-Jul-15 11:30N 55°06' E 014°41'  

Dump ship's entire track history